sensor_id;sensor_type;location;lat;lon;timestamp;P1;durP1;ratioP1;P2;durP2;ratioP2
31378;SDS011;61664;48.112;11.662;2023-05-07T00:02:25;2.95;;;2.75;;
31378;SDS011;61664;48.112;11.662;2023-05-07T00:04:52;3.92;;;3.45;;
31378;SDS011;61664;48.112;11.662;2023-05-07T00:07:19;3.58;;;3.28;;
31378;SDS011;61664;48.112;11.662;2023-05-07T00:09:46;5.07;;;3.47;;
31378;SDS011;61664;48.112;11.662;2023-05-07T00:12:13;3.63;;;3.33;;
31378;SDS011;61664;48.112;11.662;2023-05-07T00:14:40;4.47;;;4.07;;
31378;SDS011;61664;48.112;11.662;2023-05-07T00:17:07;4.03;;;3.72;;
31378;SDS011;61664;48.112;11.662;2023-05-07T00:19:34;4.47;;;3.92;;
31378;SDS011;61664;48.112;11.662;2023-05-07T00:22:01;4.57;;;3.97;;
31378;SDS011;61664;48.112;11.662;2023-05-07T00:24:28;4.07;;;3.63;;
31378;SDS011;61664;48.112;11.662;2023-05-07T00:26:55;3.60;;;3.28;;
31378;SDS011;61664;48.112;11.662;2023-05-07T00:29:24;3.38;;;3.17;;
31378;SDS011;61664;48.112;11.662;2023-05-07T00:31:51;3.80;;;3.50;;
31378;SDS011;61664;48.112;11.662;2023-05-07T00:34:20;3.83;;;3.45;;
31378;SDS011;61664;48.112;11.662;2023-05-07T00:36:46;3.72;;;3.42;;
31378;SDS011;61664;48.112;11.662;2023-05-07T00:39:13;3.92;;;3.47;;
31378;SDS011;61664;48.112;11.662;2023-05-07T00:41:41;3.10;;;2.90;;
31378;SDS011;61664;48.112;11.662;2023-05-07T00:44:07;2.80;;;2.70;;
31378;SDS011;61664;48.112;11.662;2023-05-07T00:46:34;3.17;;;2.97;;
31378;SDS011;61664;48.112;11.662;2023-05-07T00:49:01;3.40;;;3.20;;
31378;SDS011;61664;48.112;11.662;2023-05-07T00:51:29;2.88;;;2.72;;
31378;SDS011;61664;48.112;11.662;2023-05-07T00:53:56;2.75;;;2.55;;
31378;SDS011;61664;48.112;11.662;2023-05-07T00:56:23;5.22;;;3.08;;
31378;SDS011;61664;48.112;11.662;2023-05-07T00:58:51;2.83;;;2.63;;
31378;SDS011;61664;48.112;11.662;2023-05-07T01:01:18;2.80;;;2.60;;
31378;SDS011;61664;48.112;11.662;2023-05-07T01:03:46;3.22;;;3.03;;
31378;SDS011;61664;48.112;11.662;2023-05-07T01:06:13;3.10;;;2.90;;
31378;SDS011;61664;48.112;11.662;2023-05-07T01:08:43;3.33;;;3.03;;
31378;SDS011;61664;48.112;11.662;2023-05-07T01:11:11;8.30;;;4.35;;
31378;SDS011;61664;48.112;11.662;2023-05-07T01:13:38;3.55;;;3.25;;
31378;SDS011;61664;48.112;11.662;2023-05-07T01:16:06;3.30;;;2.92;;
31378;SDS011;61664;48.112;11.662;2023-05-07T01:18:35;3.22;;;3.03;;
31378;SDS011;61664;48.112;11.662;2023-05-07T01:21:03;3.15;;;2.95;;
31378;SDS011;61664;48.112;11.662;2023-05-07T01:23:31;3.65;;;2.92;;
31378;SDS011;61664;48.112;11.662;2023-05-07T01:26:02;2.78;;;2.58;;
31378;SDS011;61664;48.112;11.662;2023-05-07T01:28:28;3.20;;;3.00;;
31378;SDS011;61664;48.112;11.662;2023-05-07T01:30:56;2.92;;;2.72;;
31378;SDS011;61664;48.112;11.662;2023-05-07T01:33:29;2.78;;;2.67;;
31378;SDS011;61664;48.112;11.662;2023-05-07T01:36:01;2.92;;;2.72;;
31378;SDS011;61664;48.112;11.662;2023-05-07T01:38:32;2.70;;;2.45;;
31378;SDS011;61664;48.112;11.662;2023-05-07T01:41:00;2.85;;;2.65;;
31378;SDS011;61664;48.112;11.662;2023-05-07T01:43:29;4.38;;;2.65;;
31378;SDS011;61664;48.112;11.662;2023-05-07T01:45:57;3.13;;;2.70;;
31378;SDS011;61664;48.112;11.662;2023-05-07T01:48:25;4.03;;;2.53;;
31378;SDS011;61664;48.112;11.662;2023-05-07T01:50:52;2.58;;;2.38;;
31378;SDS011;61664;48.112;11.662;2023-05-07T01:53:21;2.60;;;2.40;;
31378;SDS011;61664;48.112;11.662;2023-05-07T01:55:48;3.95;;;2.63;;
31378;SDS011;61664;48.112;11.662;2023-05-07T01:58:15;4.40;;;3.05;;
31378;SDS011;61664;48.112;11.662;2023-05-07T02:00:42;3.55;;;2.65;;
31378;SDS011;61664;48.112;11.662;2023-05-07T02:03:08;2.47;;;2.30;;
31378;SDS011;61664;48.112;11.662;2023-05-07T02:05:35;2.95;;;2.75;;
31378;SDS011;61664;48.112;11.662;2023-05-07T02:08:03;3.42;;;2.53;;
31378;SDS011;61664;48.112;11.662;2023-05-07T02:10:30;2.67;;;2.47;;
31378;SDS011;61664;48.112;11.662;2023-05-07T02:12:56;4.18;;;3.42;;
31378;SDS011;61664;48.112;11.662;2023-05-07T02:15:23;2.83;;;2.63;;
31378;SDS011;61664;48.112;11.662;2023-05-07T02:18:01;2.47;;;2.35;;
31378;SDS011;61664;48.112;11.662;2023-05-07T02:20:32;2.70;;;2.47;;
31378;SDS011;61664;48.112;11.662;2023-05-07T02:22:59;2.90;;;2.60;;
31378;SDS011;61664;48.112;11.662;2023-05-07T02:25:26;2.72;;;2.53;;
31378;SDS011;61664;48.112;11.662;2023-05-07T02:27:53;3.25;;;2.55;;
31378;SDS011;61664;48.112;11.662;2023-05-07T02:30:20;9.40;;;2.65;;
31378;SDS011;61664;48.112;11.662;2023-05-07T02:32:47;2.78;;;2.67;;
31378;SDS011;61664;48.112;11.662;2023-05-07T02:35:14;2.75;;;2.20;;
31378;SDS011;61664;48.112;11.662;2023-05-07T02:37:41;2.58;;;2.45;;
31378;SDS011;61664;48.112;11.662;2023-05-07T02:40:08;3.05;;;2.75;;
31378;SDS011;61664;48.112;11.662;2023-05-07T02:42:36;2.35;;;2.25;;
31378;SDS011;61664;48.112;11.662;2023-05-07T02:45:03;2.42;;;2.30;;
31378;SDS011;61664;48.112;11.662;2023-05-07T02:47:31;5.45;;;2.60;;
31378;SDS011;61664;48.112;11.662;2023-05-07T02:49:58;2.70;;;2.50;;
31378;SDS011;61664;48.112;11.662;2023-05-07T02:52:24;3.72;;;2.20;;
31378;SDS011;61664;48.112;11.662;2023-05-07T02:54:52;2.90;;;2.63;;
31378;SDS011;61664;48.112;11.662;2023-05-07T02:57:18;2.47;;;2.38;;
31378;SDS011;61664;48.112;11.662;2023-05-07T02:59:46;2.70;;;2.50;;
31378;SDS011;61664;48.112;11.662;2023-05-07T03:02:12;2.88;;;2.42;;
31378;SDS011;61664;48.112;11.662;2023-05-07T03:04:40;2.13;;;2.03;;
31378;SDS011;61664;48.112;11.662;2023-05-07T03:07:09;2.92;;;2.63;;
31378;SDS011;61664;48.112;11.662;2023-05-07T03:09:36;2.63;;;2.33;;
31378;SDS011;61664;48.112;11.662;2023-05-07T03:12:03;2.45;;;2.35;;
31378;SDS011;61664;48.112;11.662;2023-05-07T03:14:30;2.80;;;2.60;;
31378;SDS011;61664;48.112;11.662;2023-05-07T03:16:57;2.50;;;2.40;;
31378;SDS011;61664;48.112;11.662;2023-05-07T03:19:24;3.17;;;2.47;;
31378;SDS011;61664;48.112;11.662;2023-05-07T03:21:51;2.35;;;2.25;;
31378;SDS011;61664;48.112;11.662;2023-05-07T03:24:18;3.63;;;2.88;;
31378;SDS011;61664;48.112;11.662;2023-05-07T03:26:44;3.08;;;2.88;;
31378;SDS011;61664;48.112;11.662;2023-05-07T03:29:11;2.85;;;2.47;;
31378;SDS011;61664;48.112;11.662;2023-05-07T03:31:38;2.22;;;2.13;;
31378;SDS011;61664;48.112;11.662;2023-05-07T03:34:05;2.10;;;1.98;;
31378;SDS011;61664;48.112;11.662;2023-05-07T03:36:32;2.67;;;2.47;;
31378;SDS011;61664;48.112;11.662;2023-05-07T03:38:59;2.58;;;2.38;;
31378;SDS011;61664;48.112;11.662;2023-05-07T03:41:26;2.75;;;2.55;;
31378;SDS011;61664;48.112;11.662;2023-05-07T03:43:53;2.55;;;2.35;;
31378;SDS011;61664;48.112;11.662;2023-05-07T03:46:19;2.40;;;2.20;;
31378;SDS011;61664;48.112;11.662;2023-05-07T03:48:46;2.50;;;2.40;;
31378;SDS011;61664;48.112;11.662;2023-05-07T03:51:13;2.70;;;2.50;;
31378;SDS011;61664;48.112;11.662;2023-05-07T03:53:44;2.33;;;2.22;;
31378;SDS011;61664;48.112;11.662;2023-05-07T03:56:11;2.92;;;2.72;;
31378;SDS011;61664;48.112;11.662;2023-05-07T03:58:38;2.95;;;2.30;;
31378;SDS011;61664;48.112;11.662;2023-05-07T04:01:04;2.70;;;2.50;;
31378;SDS011;61664;48.112;11.662;2023-05-07T04:03:31;2.55;;;2.35;;
31378;SDS011;61664;48.112;11.662;2023-05-07T04:05:59;2.75;;;2.53;;
31378;SDS011;61664;48.112;11.662;2023-05-07T04:08:25;2.80;;;2.60;;
31378;SDS011;61664;48.112;11.662;2023-05-07T04:10:56;3.55;;;3.25;;
31378;SDS011;61664;48.112;11.662;2023-05-07T04:13:24;3.13;;;2.65;;
31378;SDS011;61664;48.112;11.662;2023-05-07T04:15:52;3.22;;;2.97;;
31378;SDS011;61664;48.112;11.662;2023-05-07T04:18:21;2.72;;;2.47;;
31378;SDS011;61664;48.112;11.662;2023-05-07T04:20:48;2.40;;;2.13;;
31378;SDS011;61664;48.112;11.662;2023-05-07T04:23:18;2.87;;;2.70;;
31378;SDS011;61664;48.112;11.662;2023-05-07T04:25:44;2.15;;;2.05;;
31378;SDS011;61664;48.112;11.662;2023-05-07T04:28:12;2.90;;;2.70;;
31378;SDS011;61664;48.112;11.662;2023-05-07T04:30:39;2.33;;;2.22;;
31378;SDS011;61664;48.112;11.662;2023-05-07T04:33:07;2.40;;;1.92;;
31378;SDS011;61664;48.112;11.662;2023-05-07T04:35:34;2.17;;;2.08;;
31378;SDS011;61664;48.112;11.662;2023-05-07T04:38:01;2.30;;;2.10;;
31378;SDS011;61664;48.112;11.662;2023-05-07T04:40:28;2.33;;;2.22;;
31378;SDS011;61664;48.112;11.662;2023-05-07T04:42:56;2.40;;;2.20;;
31378;SDS011;61664;48.112;11.662;2023-05-07T04:45:23;2.22;;;2.05;;
31378;SDS011;61664;48.112;11.662;2023-05-07T04:47:49;3.63;;;2.50;;
31378;SDS011;61664;48.112;11.662;2023-05-07T04:50:17;2.60;;;2.15;;
31378;SDS011;61664;48.112;11.662;2023-05-07T04:52:45;3.38;;;2.22;;
31378;SDS011;61664;48.112;11.662;2023-05-07T04:55:12;2.33;;;2.22;;
31378;SDS011;61664;48.112;11.662;2023-05-07T04:57:39;2.53;;;2.33;;
31378;SDS011;61664;48.112;11.662;2023-05-07T05:00:07;2.45;;;2.35;;
31378;SDS011;61664;48.112;11.662;2023-05-07T05:02:35;2.47;;;2.28;;
31378;SDS011;61664;48.112;11.662;2023-05-07T05:05:02;2.33;;;2.22;;
31378;SDS011;61664;48.112;11.662;2023-05-07T05:07:29;2.05;;;1.95;;
31378;SDS011;61664;48.112;11.662;2023-05-07T05:09:56;2.72;;;2.53;;
31378;SDS011;61664;48.112;11.662;2023-05-07T05:12:24;2.00;;;1.90;;
31378;SDS011;61664;48.112;11.662;2023-05-07T05:14:51;2.85;;;2.65;;
31378;SDS011;61664;48.112;11.662;2023-05-07T05:17:17;4.85;;;2.40;;
31378;SDS011;61664;48.112;11.662;2023-05-07T05:19:44;2.50;;;2.30;;
31378;SDS011;61664;48.112;11.662;2023-05-07T05:22:11;2.05;;;1.95;;
31378;SDS011;61664;48.112;11.662;2023-05-07T05:24:38;2.42;;;2.33;;
31378;SDS011;61664;48.112;11.662;2023-05-07T05:27:05;2.08;;;1.98;;
31378;SDS011;61664;48.112;11.662;2023-05-07T05:29:32;2.40;;;2.20;;
31378;SDS011;61664;48.112;11.662;2023-05-07T05:31:59;2.33;;;2.22;;
31378;SDS011;61664;48.112;11.662;2023-05-07T05:34:26;2.42;;;2.22;;
31378;SDS011;61664;48.112;11.662;2023-05-07T05:36:53;2.25;;;2.15;;
31378;SDS011;61664;48.112;11.662;2023-05-07T05:39:20;4.15;;;2.30;;
31378;SDS011;61664;48.112;11.662;2023-05-07T05:41:49;1.85;;;1.75;;
31378;SDS011;61664;48.112;11.662;2023-05-07T05:44:16;3.53;;;2.35;;
31378;SDS011;61664;48.112;11.662;2023-05-07T05:46:42;2.30;;;2.10;;
31378;SDS011;61664;48.112;11.662;2023-05-07T05:49:10;4.25;;;3.20;;
31378;SDS011;61664;48.112;11.662;2023-05-07T05:51:36;2.60;;;2.40;;
31378;SDS011;61664;48.112;11.662;2023-05-07T05:54:03;2.30;;;2.10;;
31378;SDS011;61664;48.112;11.662;2023-05-07T05:56:30;2.42;;;2.33;;
31378;SDS011;61664;48.112;11.662;2023-05-07T05:58:57;2.40;;;2.13;;
31378;SDS011;61664;48.112;11.662;2023-05-07T06:01:24;2.78;;;2.45;;
31378;SDS011;61664;48.112;11.662;2023-05-07T06:03:51;2.20;;;2.08;;
31378;SDS011;61664;48.112;11.662;2023-05-07T06:06:18;2.30;;;2.13;;
31378;SDS011;61664;48.112;11.662;2023-05-07T06:08:45;2.50;;;2.20;;
31378;SDS011;61664;48.112;11.662;2023-05-07T06:11:12;2.97;;;2.15;;
31378;SDS011;61664;48.112;11.662;2023-05-07T06:13:39;2.40;;;2.20;;
31378;SDS011;61664;48.112;11.662;2023-05-07T06:16:06;2.50;;;2.30;;
31378;SDS011;61664;48.112;11.662;2023-05-07T06:18:33;2.35;;;2.25;;
31378;SDS011;61664;48.112;11.662;2023-05-07T06:21:02;2.45;;;2.25;;
31378;SDS011;61664;48.112;11.662;2023-05-07T06:23:29;1.95;;;1.85;;
31378;SDS011;61664;48.112;11.662;2023-05-07T06:25:56;2.13;;;2.03;;
31378;SDS011;61664;48.112;11.662;2023-05-07T06:28:23;2.20;;;2.10;;
31378;SDS011;61664;48.112;11.662;2023-05-07T06:30:50;2.05;;;1.92;;
31378;SDS011;61664;48.112;11.662;2023-05-07T06:33:17;3.38;;;2.40;;
31378;SDS011;61664;48.112;11.662;2023-05-07T06:35:43;2.35;;;2.10;;
31378;SDS011;61664;48.112;11.662;2023-05-07T06:38:11;1.60;;;1.50;;
31378;SDS011;61664;48.112;11.662;2023-05-07T06:40:38;1.75;;;1.65;;
31378;SDS011;61664;48.112;11.662;2023-05-07T06:43:05;1.75;;;1.58;;
31378;SDS011;61664;48.112;11.662;2023-05-07T06:45:32;1.77;;;1.67;;
31378;SDS011;61664;48.112;11.662;2023-05-07T06:47:59;1.63;;;1.52;;
31378;SDS011;61664;48.112;11.662;2023-05-07T06:50:26;1.70;;;1.60;;
31378;SDS011;61664;48.112;11.662;2023-05-07T06:52:52;1.80;;;1.70;;
31378;SDS011;61664;48.112;11.662;2023-05-07T06:55:20;1.70;;;1.60;;
31378;SDS011;61664;48.112;11.662;2023-05-07T06:57:47;1.70;;;1.60;;
31378;SDS011;61664;48.112;11.662;2023-05-07T07:00:14;1.90;;;1.80;;
31378;SDS011;61664;48.112;11.662;2023-05-07T07:02:41;3.45;;;1.67;;
31378;SDS011;61664;48.112;11.662;2023-05-07T07:05:09;1.85;;;1.70;;
31378;SDS011;61664;48.112;11.662;2023-05-07T07:07:36;1.77;;;1.67;;
31378;SDS011;61664;48.112;11.662;2023-05-07T07:10:03;1.75;;;1.65;;
31378;SDS011;61664;48.112;11.662;2023-05-07T07:12:31;1.60;;;1.50;;
31378;SDS011;61664;48.112;11.662;2023-05-07T07:14:58;1.67;;;1.58;;
31378;SDS011;61664;48.112;11.662;2023-05-07T07:17:25;1.70;;;1.60;;
31378;SDS011;61664;48.112;11.662;2023-05-07T07:19:52;1.75;;;1.65;;
31378;SDS011;61664;48.112;11.662;2023-05-07T07:22:18;1.58;;;1.48;;
31378;SDS011;61664;48.112;11.662;2023-05-07T07:24:45;1.35;;;1.25;;
31378;SDS011;61664;48.112;11.662;2023-05-07T07:27:18;1.48;;;1.40;;
31378;SDS011;61664;48.112;11.662;2023-05-07T07:29:44;1.27;;;1.25;;
31378;SDS011;61664;48.112;11.662;2023-05-07T07:32:12;2.13;;;1.50;;
31378;SDS011;61664;48.112;11.662;2023-05-07T07:34:40;1.17;;;1.10;;
31378;SDS011;61664;48.112;11.662;2023-05-07T07:37:10;2.17;;;1.80;;
31378;SDS011;61664;48.112;11.662;2023-05-07T07:39:39;2.93;;;1.40;;
31378;SDS011;61664;48.112;11.662;2023-05-07T07:42:08;1.38;;;1.27;;
31378;SDS011;61664;48.112;11.662;2023-05-07T07:44:35;1.80;;;1.70;;
31378;SDS011;61664;48.112;11.662;2023-05-07T07:47:02;1.60;;;1.50;;
31378;SDS011;61664;48.112;11.662;2023-05-07T07:49:29;1.50;;;1.40;;
31378;SDS011;61664;48.112;11.662;2023-05-07T07:51:56;3.05;;;1.35;;
31378;SDS011;61664;48.112;11.662;2023-05-07T07:54:25;1.30;;;1.20;;
31378;SDS011;61664;48.112;11.662;2023-05-07T07:56:58;1.70;;;1.60;;
31378;SDS011;61664;48.112;11.662;2023-05-07T07:59:31;1.30;;;1.20;;
31378;SDS011;61664;48.112;11.662;2023-05-07T08:01:59;1.42;;;1.20;;
31378;SDS011;61664;48.112;11.662;2023-05-07T08:04:31;3.35;;;1.67;;
31378;SDS011;61664;48.112;11.662;2023-05-07T08:07:00;3.40;;;1.00;;
31378;SDS011;61664;48.112;11.662;2023-05-07T08:09:46;1.20;;;1.20;;
31378;SDS011;61664;48.112;11.662;2023-05-07T08:12:13;1.58;;;1.30;;
31378;SDS011;61664;48.112;11.662;2023-05-07T08:14:41;1.15;;;1.02;;
31378;SDS011;61664;48.112;11.662;2023-05-07T08:17:08;2.20;;;1.00;;
31378;SDS011;61664;48.112;11.662;2023-05-07T08:19:36;1.50;;;1.40;;
31378;SDS011;61664;48.112;11.662;2023-05-07T08:22:03;1.30;;;1.20;;
31378;SDS011;61664;48.112;11.662;2023-05-07T08:24:31;1.13;;;1.13;;
31378;SDS011;61664;48.112;11.662;2023-05-07T08:26:58;2.97;;;1.13;;
31378;SDS011;61664;48.112;11.662;2023-05-07T08:29:25;1.30;;;1.30;;
31378;SDS011;61664;48.112;11.662;2023-05-07T08:31:52;1.02;;;1.02;;
31378;SDS011;61664;48.112;11.662;2023-05-07T08:34:20;1.30;;;1.20;;
31378;SDS011;61664;48.112;11.662;2023-05-07T08:36:48;1.58;;;1.30;;
31378;SDS011;61664;48.112;11.662;2023-05-07T08:39:15;0.85;;;0.85;;
31378;SDS011;61664;48.112;11.662;2023-05-07T08:41:45;1.25;;;1.15;;
31378;SDS011;61664;48.112;11.662;2023-05-07T08:44:14;1.20;;;1.20;;
31378;SDS011;61664;48.112;11.662;2023-05-07T08:46:46;0.90;;;0.90;;
31378;SDS011;61664;48.112;11.662;2023-05-07T08:49:20;1.05;;;0.93;;
31378;SDS011;61664;48.112;11.662;2023-05-07T08:51:47;1.23;;;0.68;;
31378;SDS011;61664;48.112;11.662;2023-05-07T08:54:17;0.75;;;0.75;;
31378;SDS011;61664;48.112;11.662;2023-05-07T08:56:46;1.23;;;1.13;;
31378;SDS011;61664;48.112;11.662;2023-05-07T08:59:14;1.10;;;1.00;;
31378;SDS011;61664;48.112;11.662;2023-05-07T09:01:41;1.02;;;0.93;;
31378;SDS011;61664;48.112;11.662;2023-05-07T09:04:08;1.92;;;0.85;;
31378;SDS011;61664;48.112;11.662;2023-05-07T09:06:35;0.95;;;0.60;;
31378;SDS011;61664;48.112;11.662;2023-05-07T09:09:04;3.55;;;1.17;;
31378;SDS011;61664;48.112;11.662;2023-05-07T09:11:31;0.90;;;0.73;;
31378;SDS011;61664;48.112;11.662;2023-05-07T09:13:58;0.63;;;0.63;;
31378;SDS011;61664;48.112;11.662;2023-05-07T09:16:29;0.50;;;0.50;;
31378;SDS011;61664;48.112;11.662;2023-05-07T09:18:57;0.50;;;0.50;;
31378;SDS011;61664;48.112;11.662;2023-05-07T09:21:28;0.63;;;0.50;;
31378;SDS011;61664;48.112;11.662;2023-05-07T09:23:56;0.70;;;0.70;;
31378;SDS011;61664;48.112;11.662;2023-05-07T09:26:23;1.75;;;0.75;;
31378;SDS011;61664;48.112;11.662;2023-05-07T09:28:51;0.60;;;0.50;;
31378;SDS011;61664;48.112;11.662;2023-05-07T09:31:18;1.33;;;0.70;;
31378;SDS011;61664;48.112;11.662;2023-05-07T09:33:47;0.57;;;0.57;;
31378;SDS011;61664;48.112;11.662;2023-05-07T09:36:13;0.50;;;0.50;;
31378;SDS011;61664;48.112;11.662;2023-05-07T09:38:41;0.40;;;0.40;;
31378;SDS011;61664;48.112;11.662;2023-05-07T09:41:09;0.85;;;0.70;;
31378;SDS011;61664;48.112;11.662;2023-05-07T09:43:39;0.50;;;0.50;;
31378;SDS011;61664;48.112;11.662;2023-05-07T09:46:14;0.70;;;0.60;;
31378;SDS011;61664;48.112;11.662;2023-05-07T09:48:43;1.00;;;0.68;;
31378;SDS011;61664;48.112;11.662;2023-05-07T09:53:59;0.43;;;0.35;;
31378;SDS011;61664;48.112;11.662;2023-05-07T09:56:29;0.40;;;0.40;;
31378;SDS011;61664;48.112;11.662;2023-05-07T09:58:59;0.70;;;0.60;;
31378;SDS011;61664;48.112;11.662;2023-05-07T10:01:27;0.55;;;0.55;;
31378;SDS011;61664;48.112;11.662;2023-05-07T10:03:55;0.80;;;0.80;;
31378;SDS011;61664;48.112;11.662;2023-05-07T10:06:24;0.90;;;0.90;;
31378;SDS011;61664;48.112;11.662;2023-05-07T10:08:52;1.30;;;0.60;;
31378;SDS011;61664;48.112;11.662;2023-05-07T10:11:21;0.50;;;0.43;;
31378;SDS011;61664;48.112;11.662;2023-05-07T10:13:49;0.40;;;0.40;;
31378;SDS011;61664;48.112;11.662;2023-05-07T10:16:18;1.05;;;0.50;;
31378;SDS011;61664;48.112;11.662;2023-05-07T10:18:47;0.45;;;0.45;;
31378;SDS011;61664;48.112;11.662;2023-05-07T10:21:17;0.40;;;0.40;;
31378;SDS011;61664;48.112;11.662;2023-05-07T10:23:50;0.45;;;0.45;;
31378;SDS011;61664;48.112;11.662;2023-05-07T10:26:23;0.45;;;0.45;;
31378;SDS011;61664;48.112;11.662;2023-05-07T10:28:54;0.57;;;0.50;;
31378;SDS011;61664;48.112;11.662;2023-05-07T10:31:38;0.50;;;0.40;;
31378;SDS011;61664;48.112;11.662;2023-05-07T10:34:28;0.63;;;0.63;;
31378;SDS011;61664;48.112;11.662;2023-05-07T10:37:24;0.50;;;0.50;;
31378;SDS011;61664;48.112;11.662;2023-05-07T10:39:52;0.75;;;0.45;;
31378;SDS011;61664;48.112;11.662;2023-05-07T10:42:19;1.80;;;0.60;;
31378;SDS011;61664;48.112;11.662;2023-05-07T10:44:46;0.35;;;0.35;;
31378;SDS011;61664;48.112;11.662;2023-05-07T10:47:14;0.65;;;0.55;;
31378;SDS011;61664;48.112;11.662;2023-05-07T10:55:18;0.38;;;0.38;;
31378;SDS011;61664;48.112;11.662;2023-05-07T10:57:43;0.40;;;0.40;;
31378;SDS011;61664;48.112;11.662;2023-05-07T11:03:04;0.40;;;0.40;;
31378;SDS011;61664;48.112;11.662;2023-05-07T11:05:33;1.00;;;0.50;;
31378;SDS011;61664;48.112;11.662;2023-05-07T11:08:03;0.52;;;0.52;;
31378;SDS011;61664;48.112;11.662;2023-05-07T11:13:41;0.77;;;0.77;;
31378;SDS011;61664;48.112;11.662;2023-05-07T11:16:21;0.60;;;0.60;;
31378;SDS011;61664;48.112;11.662;2023-05-07T11:18:50;1.10;;;0.70;;
31378;SDS011;61664;48.112;11.662;2023-05-07T11:21:31;0.50;;;0.50;;
31378;SDS011;61664;48.112;11.662;2023-05-07T11:24:03;1.73;;;0.85;;
31378;SDS011;61664;48.112;11.662;2023-05-07T11:26:48;1.15;;;1.10;;
31378;SDS011;61664;48.112;11.662;2023-05-07T11:29:20;1.15;;;1.08;;
31378;SDS011;61664;48.112;11.662;2023-05-07T11:31:52;1.20;;;1.10;;
31378;SDS011;61664;48.112;11.662;2023-05-07T11:34:21;1.13;;;1.10;;
31378;SDS011;61664;48.112;11.662;2023-05-07T11:36:51;1.73;;;1.63;;
31378;SDS011;61664;48.112;11.662;2023-05-07T11:39:29;1.60;;;1.50;;
31378;SDS011;61664;48.112;11.662;2023-05-07T11:42:02;0.80;;;0.80;;
31378;SDS011;61664;48.112;11.662;2023-05-07T11:44:44;1.52;;;1.00;;
31378;SDS011;61664;48.112;11.662;2023-05-07T11:47:21;1.10;;;1.10;;
31378;SDS011;61664;48.112;11.662;2023-05-07T11:49:49;2.50;;;1.10;;
31378;SDS011;61664;48.112;11.662;2023-05-07T11:52:19;1.10;;;1.10;;
31378;SDS011;61664;48.112;11.662;2023-05-07T11:54:52;1.02;;;0.80;;
31378;SDS011;61664;48.112;11.662;2023-05-07T11:57:24;0.85;;;0.82;;
31378;SDS011;61664;48.112;11.662;2023-05-07T11:59:53;0.93;;;0.93;;
31378;SDS011;61664;48.112;11.662;2023-05-07T12:02:21;0.82;;;0.82;;
31378;SDS011;61664;48.112;11.662;2023-05-07T12:04:48;1.33;;;1.23;;
31378;SDS011;61664;48.112;11.662;2023-05-07T12:07:15;1.25;;;1.15;;
31378;SDS011;61664;48.112;11.662;2023-05-07T12:09:43;1.30;;;1.20;;
31378;SDS011;61664;48.112;11.662;2023-05-07T12:12:11;2.13;;;1.20;;
31378;SDS011;61664;48.112;11.662;2023-05-07T12:14:43;0.90;;;0.75;;
31378;SDS011;61664;48.112;11.662;2023-05-07T12:17:13;1.40;;;1.30;;
31378;SDS011;61664;48.112;11.662;2023-05-07T12:19:41;1.98;;;1.00;;
31378;SDS011;61664;48.112;11.662;2023-05-07T12:22:10;1.20;;;1.15;;
31378;SDS011;61664;48.112;11.662;2023-05-07T12:24:45;1.10;;;0.88;;
31378;SDS011;61664;48.112;11.662;2023-05-07T12:27:23;2.30;;;1.38;;
31378;SDS011;61664;48.112;11.662;2023-05-07T12:29:50;0.90;;;0.90;;
31378;SDS011;61664;48.112;11.662;2023-05-07T12:32:18;1.92;;;1.08;;
31378;SDS011;61664;48.112;11.662;2023-05-07T12:34:50;1.83;;;1.23;;
31378;SDS011;61664;48.112;11.662;2023-05-07T12:37:22;0.80;;;0.80;;
31378;SDS011;61664;48.112;11.662;2023-05-07T12:40:10;0.88;;;0.85;;
31378;SDS011;61664;48.112;11.662;2023-05-07T12:42:39;1.10;;;0.85;;
31378;SDS011;61664;48.112;11.662;2023-05-07T12:45:10;0.82;;;0.82;;
31378;SDS011;61664;48.112;11.662;2023-05-07T12:47:43;0.85;;;0.85;;
31378;SDS011;61664;48.112;11.662;2023-05-07T12:50:23;0.93;;;0.82;;
31378;SDS011;61664;48.112;11.662;2023-05-07T12:52:50;1.02;;;1.02;;
31378;SDS011;61664;48.112;11.662;2023-05-07T12:55:19;1.30;;;0.93;;
31378;SDS011;61664;48.112;11.662;2023-05-07T12:57:47;0.93;;;0.93;;
31378;SDS011;61664;48.112;11.662;2023-05-07T13:00:17;1.00;;;0.88;;
31378;SDS011;61664;48.112;11.662;2023-05-07T13:02:59;1.02;;;1.02;;
31378;SDS011;61664;48.112;11.662;2023-05-07T13:05:26;0.80;;;0.80;;
31378;SDS011;61664;48.112;11.662;2023-05-07T13:07:56;1.10;;;1.00;;
31378;SDS011;61664;48.112;11.662;2023-05-07T13:10:24;1.13;;;0.82;;
31378;SDS011;61664;48.112;11.662;2023-05-07T13:12:51;1.00;;;1.00;;
31378;SDS011;61664;48.112;11.662;2023-05-07T13:15:19;1.90;;;1.30;;
31378;SDS011;61664;48.112;11.662;2023-05-07T13:17:49;0.70;;;0.70;;
31378;SDS011;61664;48.112;11.662;2023-05-07T13:20:16;0.90;;;0.90;;
31378;SDS011;61664;48.112;11.662;2023-05-07T13:22:43;1.77;;;0.80;;
31378;SDS011;61664;48.112;11.662;2023-05-07T13:25:10;1.13;;;1.05;;
31378;SDS011;61664;48.112;11.662;2023-05-07T13:27:37;1.40;;;0.95;;
31378;SDS011;61664;48.112;11.662;2023-05-07T13:30:04;1.55;;;0.77;;
31378;SDS011;61664;48.112;11.662;2023-05-07T13:32:32;0.95;;;0.90;;
31378;SDS011;61664;48.112;11.662;2023-05-07T13:34:59;1.02;;;1.00;;
31378;SDS011;61664;48.112;11.662;2023-05-07T13:37:27;0.70;;;0.70;;
31378;SDS011;61664;48.112;11.662;2023-05-07T13:39:53;1.10;;;0.65;;
31378;SDS011;61664;48.112;11.662;2023-05-07T13:42:20;0.95;;;0.90;;
31378;SDS011;61664;48.112;11.662;2023-05-07T13:44:47;0.68;;;0.68;;
31378;SDS011;61664;48.112;11.662;2023-05-07T13:47:14;0.70;;;0.70;;
31378;SDS011;61664;48.112;11.662;2023-05-07T13:49:41;0.88;;;0.88;;
31378;SDS011;61664;48.112;11.662;2023-05-07T13:52:07;0.57;;;0.57;;
31378;SDS011;61664;48.112;11.662;2023-05-07T13:54:34;0.65;;;0.65;;
31378;SDS011;61664;48.112;11.662;2023-05-07T13:57:01;0.55;;;0.50;;
31378;SDS011;61664;48.112;11.662;2023-05-07T13:59:28;0.73;;;0.70;;
31378;SDS011;61664;48.112;11.662;2023-05-07T14:01:55;0.70;;;0.65;;
31378;SDS011;61664;48.112;11.662;2023-05-07T14:04:22;1.33;;;0.90;;
31378;SDS011;61664;48.112;11.662;2023-05-07T14:06:49;0.77;;;0.75;;
31378;SDS011;61664;48.112;11.662;2023-05-07T14:09:16;0.70;;;0.70;;
31378;SDS011;61664;48.112;11.662;2023-05-07T14:11:43;0.60;;;0.60;;
31378;SDS011;61664;48.112;11.662;2023-05-07T14:14:10;0.70;;;0.70;;
31378;SDS011;61664;48.112;11.662;2023-05-07T14:16:37;0.60;;;0.60;;
31378;SDS011;61664;48.112;11.662;2023-05-07T14:19:04;0.60;;;0.60;;
31378;SDS011;61664;48.112;11.662;2023-05-07T14:21:36;0.50;;;0.47;;
31378;SDS011;61664;48.112;11.662;2023-05-07T14:24:03;0.57;;;0.47;;
31378;SDS011;61664;48.112;11.662;2023-05-07T14:26:33;0.65;;;0.65;;
31378;SDS011;61664;48.112;11.662;2023-05-07T14:29:00;0.60;;;0.60;;
31378;SDS011;61664;48.112;11.662;2023-05-07T14:31:27;0.95;;;0.95;;
31378;SDS011;61664;48.112;11.662;2023-05-07T14:33:54;1.02;;;0.80;;
31378;SDS011;61664;48.112;11.662;2023-05-07T14:36:24;0.98;;;0.70;;
31378;SDS011;61664;48.112;11.662;2023-05-07T14:38:52;0.65;;;0.65;;
31378;SDS011;61664;48.112;11.662;2023-05-07T14:41:25;0.82;;;0.60;;
31378;SDS011;61664;48.112;11.662;2023-05-07T14:43:52;0.80;;;0.80;;
31378;SDS011;61664;48.112;11.662;2023-05-07T14:46:18;0.60;;;0.60;;
31378;SDS011;61664;48.112;11.662;2023-05-07T14:48:46;0.52;;;0.50;;
31378;SDS011;61664;48.112;11.662;2023-05-07T14:51:13;1.83;;;0.70;;
31378;SDS011;61664;48.112;11.662;2023-05-07T14:53:40;0.50;;;0.50;;
31378;SDS011;61664;48.112;11.662;2023-05-07T14:56:08;0.85;;;0.85;;